Time;durP1;ratioP1;P1;durP2;ratioP2;P2;SDS_P1;SDS_P2;PMS_P1;PMS_P2;Temp;Humidity;BMP_temperature;BMP_pressure;BME280_temperature;BME280_humidity;BME280_pressure;Samples;Min_cycle;Max_cycle;Signal;HPM_P1;HPM_P2
2021/03/27 00:03:55;;;;;;;13.45;7.57;;;;;;;10.53;58.07;100927.84;10235099;28;20037;-70
2021/03/27 00:08:57;;;;;;;12.75;8.13;;;;;;;10.41;57.74;100917.50;10259313;28;20056;-70
2021/03/27 00:14:06;;;;;;;13.57;8.18;;;;;;;10.28;58.44;100919.19;10278860;28;20122;-68
2021/03/27 00:19:31;;;;;;;14.60;8.32;;;;;;;10.16;58.02;100912.63;10285430;28;20060;-68
2021/03/27 00:24:54;;;;;;;12.35;7.82;;;;;;;10.04;58.02;100913.16;10271867;28;20739;-67
2021/03/27 00:29:56;;;;;;;14.25;7.95;;;;;;;9.92;58.97;100899.25;10273406;28;20107;-68
2021/03/27 00:34:56;;;;;;;14.65;8.55;;;;;;;9.95;58.34;100901.38;10272905;28;20053;-66
2021/03/27 00:40:07;;;;;;;15.63;8.40;;;;;;;9.92;58.53;100893.81;10276227;28;20415;-68
2021/03/27 00:45:10;;;;;;;10.77;7.60;;;;;;;9.82;58.67;100883.94;10234675;28;20041;-71
2021/03/27 00:50:35;;;;;;;13.60;7.15;;;;;;;9.74;59.44;100874.53;10233096;28;20106;-68
2021/03/27 00:55:40;;;;;;;12.48;7.85;;;;;;;9.83;58.84;100864.47;10235403;28;20049;-69
2021/03/27 01:00:42;;;;;;;14.10;8.30;;;;;;;9.90;58.25;100859.41;10280791;28;20134;-69
2021/03/27 01:05:38;;;;;;;13.35;8.25;;;;;;;9.90;58.55;100845.75;10285394;28;20057;-69
2021/03/27 01:10:49;;;;;;;12.73;7.30;;;;;;;9.84;59.18;100838.81;10272362;28;20689;-68
2021/03/27 01:15:58;;;;;;;18.48;8.75;;;;;;;9.92;58.38;100817.31;10280514;28;20607;-71
2021/03/27 01:21:08;;;;;;;15.88;8.88;;;;;;;9.93;58.27;100818.94;10278591;28;20083;-67
2021/03/27 01:26:18;;;;;;;16.02;8.32;;;;;;;9.95;58.03;100806.56;10274658;28;20136;-67
2021/03/27 01:31:38;;;;;;;13.65;8.38;;;;;;;9.86;58.24;100792.88;10274886;28;20132;-67
2021/03/27 01:36:50;;;;;;;14.55;8.30;;;;;;;9.77;59.50;100785.72;10278328;28;20510;-69
2021/03/27 01:41:52;;;;;;;12.80;8.35;;;;;;;9.69;58.84;100784.56;10271044;28;20033;-67
2021/03/27 01:47:25;;;;;;;14.13;7.68;;;;;;;9.53;59.58;100777.84;10277954;28;20099;-70
2021/03/27 01:52:45;;;;;;;11.38;8.23;;;;;;;9.45;59.19;100765.75;10253735;28;20037;-71
2021/03/27 01:57:50;;;;;;;18.48;8.65;;;;;;;9.40;60.25;100769.41;10232506;28;20132;-69
2021/03/27 02:02:56;;;;;;;11.57;7.50;;;;;;;9.29;60.21;100751.66;10234789;28;20122;-69
2021/03/27 02:08:04;;;;;;;16.35;8.48;;;;;;;9.31;59.52;100738.50;10229440;28;20053;-68
2021/03/27 02:13:07;;;;;;;15.02;7.68;;;;;;;9.29;60.39;100751.66;10230961;28;20050;-68
2021/03/27 02:18:26;;;;;;;13.32;7.38;;;;;;;9.19;60.65;100749.97;10234562;28;20065;-68
2021/03/27 02:24:08;;;;;;;11.40;7.07;;;;;;;9.14;60.59;100743.81;10223428;28;20049;-69
2021/03/27 02:29:28;;;;;;;13.73;8.32;;;;;;;9.05;61.71;100736.38;10217663;28;20054;-69
2021/03/27 02:34:35;;;;;;;13.75;8.50;;;;;;;9.06;61.23;100732.50;10272664;28;20090;-67
2021/03/27 02:39:40;;;;;;;11.27;7.47;;;;;;;9.07;61.10;100711.50;10272158;28;20171;-67
2021/03/27 02:44:46;;;;;;;12.25;7.68;;;;;;;9.08;61.23;100706.88;10268188;28;20048;-68
2021/03/27 02:50:14;;;;;;;14.60;7.65;;;;;;;9.16;61.15;100695.19;10264339;28;20112;-66
2021/03/27 02:55:25;;;;;;;12.88;8.15;;;;;;;9.19;60.72;100705.50;10260532;28;20044;-68
2021/03/27 03:00:29;;;;;;;13.02;8.68;;;;;;;9.28;60.50;100698.19;10238493;28;20049;-67
2021/03/27 03:05:46;;;;;;;11.90;7.57;;;;;;;9.34;60.83;100691.50;10235439;28;20054;-69
2021/03/27 03:11:00;;;;;;;13.10;7.68;;;;;;;9.41;60.25;100694.59;10218925;28;20049;-69
2021/03/27 03:16:30;;;;;;;11.60;7.55;;;;;;;9.42;61.37;100685.31;10245981;28;20052;-68
2021/03/27 03:21:46;;;;;;;15.18;7.65;;;;;;;9.41;60.38;100689.13;10279564;28;20124;-66
2021/03/27 03:27:01;;;;;;;14.48;8.10;;;;;;;9.25;61.28;100690.63;10277058;28;20075;-66
2021/03/27 03:32:10;;;;;;;12.00;6.75;;;;;;;9.16;60.92;100687.03;10257602;28;20568;-67
2021/03/27 03:37:25;;;;;;;13.82;7.07;;;;;;;9.27;60.72;100677.47;10274430;28;20049;-68
2021/03/27 03:42:30;;;;;;;11.20;6.90;;;;;;;9.40;60.21;100681.25;10275270;28;20068;-67
2021/03/27 03:47:49;;;;;;;15.50;6.90;;;;;;;9.35;60.15;100679.47;10263341;28;20064;-67
2021/03/27 03:53:21;;;;;;;13.45;6.95;;;;;;;9.51;58.39;100681.81;10272174;28;20067;-66
2021/03/27 03:58:37;;;;;;;11.50;6.88;;;;;;;9.55;58.55;100682.81;10278214;28;20075;-65
2021/03/27 04:03:52;;;;;;;13.32;6.53;;;;;;;9.55;59.54;100678.16;10265633;28;20045;-66
2021/03/27 04:09:20;;;;;;;11.55;6.35;;;;;;;9.72;59.36;100695.75;10278040;28;20072;-66
2021/03/27 04:14:35;;;;;;;11.15;6.82;;;;;;;9.65;59.88;100712.56;10275332;28;20053;-65
2021/03/27 04:19:37;;;;;;;13.90;7.32;;;;;;;9.44;63.81;100721.25;10270213;28;20045;-66
2021/03/27 04:24:55;;;;;;;14.10;8.87;;;;;;;8.79;69.12;100754.38;10273899;28;20049;-67
2021/03/27 04:30:19;;;;;;;13.68;8.90;;;;;;;8.31;74.41;100792.88;10268027;28;20465;-67
2021/03/27 04:35:42;;;;;;;10.40;7.67;;;;;;;7.62;80.05;100818.00;10241080;28;20054;-67
2021/03/27 04:40:48;;;;;;;13.85;7.25;;;;;;;7.30;82.09;100824.97;10285193;28;20447;-68
2021/03/27 04:45:48;;;;;;;12.35;8.65;;;;;;;7.06;83.05;100835.09;10283347;28;20057;-68
2021/03/27 04:51:12;;;;;;;7.90;5.43;;;;;;;6.70;82.60;100844.47;10236488;28;20909;-68
2021/03/27 04:56:43;;;;;;;5.53;3.25;;;;;;;6.56;83.10;100869.91;10233625;28;20057;-68
2021/03/27 05:02:07;;;;;;;5.85;3.75;;;;;;;6.30;83.19;100878.28;10274333;28;20079;-67
2021/03/27 05:07:10;;;;;;;5.05;2.17;;;;;;;6.21;83.34;100888.13;10273960;28;20063;-69
2021/03/27 05:12:15;;;;;;;5.63;3.10;;;;;;;6.25;84.07;100887.28;10280577;28;20103;-69
2021/03/27 05:17:44;;;;;;;4.13;2.30;;;;;;;6.08;83.70;100909.41;10275770;28;20422;-68
2021/03/27 05:22:53;;;;;;;3.95;2.08;;;;;;;6.16;84.24;100916.13;10271705;28;20406;-68
2021/03/27 05:28:07;;;;;;;3.70;2.08;;;;;;;5.83;84.77;100934.78;10257544;28;20114;-67
2021/03/27 05:33:09;;;;;;;;;;;;;;;5.70;83.70;100936.22;10258916;28;20099;-66
2021/03/27 05:38:17;;;;;;;5.35;2.60;;;;;;;5.42;83.77;100950.44;10262272;28;19932;-65
2021/03/27 05:43:33;;;;;;;5.53;2.60;;;;;;;5.47;83.91;100953.94;10264687;28;20060;-67
2021/03/27 05:49:20;;;;;;;5.30;2.80;;;;;;;5.48;84.90;100976.47;10256486;28;20071;-67
2021/03/27 05:54:32;;;;;;;4.20;2.03;;;;;;;5.36;84.08;100968.66;10268623;28;20071;-66
2021/03/27 05:59:49;;;;;;;6.63;3.10;;;;;;;5.58;84.14;100971.00;10273592;28;20045;-67
2021/03/27 06:05:13;;;;;;;4.90;2.60;;;;;;;5.54;82.93;100980.78;10276617;28;20072;-67
2021/03/27 06:10:13;;;;;;;5.40;2.92;;;;;;;5.58;83.40;100971.00;10273455;28;20426;-68
2021/03/27 06:15:26;;;;;;;6.47;2.88;;;;;;;5.51;83.11;100991.38;10271420;28;20086;-68
2021/03/27 06:20:46;;;;;;;7.22;3.45;;;;;;;5.41;84.77;100992.22;10276922;28;20526;-68
2021/03/27 06:26:01;;;;;;;5.95;3.50;;;;;;;5.53;83.61;100998.16;10271797;28;20564;-66
2021/03/27 06:31:25;;;;;;;5.10;3.30;;;;;;;5.47;83.33;100999.25;10268063;28;20049;-67
2021/03/27 06:36:45;;;;;;;4.60;2.95;;;;;;;5.40;83.12;101012.28;10274123;28;20045;-66
2021/03/27 06:41:50;;;;;;;5.55;3.53;;;;;;;5.40;84.21;101006.88;10269589;28;20044;-67
2021/03/27 06:47:14;;;;;;;5.32;3.38;;;;;;;5.50;83.35;101017.69;10259931;28;20044;-67
2021/03/27 06:52:25;;;;;;;6.38;3.42;;;;;;;5.59;83.18;101021.47;10260238;28;20049;-68
2021/03/27 06:57:51;;;;;;;6.00;4.10;;;;;;;5.64;82.90;101035.00;10264136;28;20533;-68
2021/03/27 07:03:24;;;;;;;7.50;3.80;;;;;;;5.62;82.48;101042.59;10254146;28;20044;-68
2021/03/27 07:08:52;;;;;;;7.78;3.85;;;;;;;5.56;82.58;101042.88;10246090;28;20045;-68
2021/03/27 07:14:09;;;;;;;10.38;5.40;;;;;;;5.60;82.97;101057.53;10228604;28;20045;-67
2021/03/27 07:19:35;;;;;;;9.52;4.60;;;;;;;5.62;82.46;101058.88;10255450;28;20060;-67
2021/03/27 07:25:11;;;;;;;9.13;5.10;;;;;;;5.37;83.24;101077.94;10256978;28;20143;-67
2021/03/27 07:30:43;;;;;;;10.13;6.30;;;;;;;5.41;84.30;101089.84;10219360;28;20136;-67
2021/03/27 07:36:08;;;;;;;7.78;3.15;;;;;;;5.10;83.19;101135.16;10262695;28;20046;-66
2021/03/27 07:41:28;;;;;;;4.68;3.05;;;;;;;4.97;83.56;101122.97;10250269;28;20041;-67
2021/03/27 07:46:49;;;;;;;6.07;2.08;;;;;;;4.67;81.88;101151.63;10257006;28;20081;-67
2021/03/27 07:52:07;;;;;;;5.90;2.28;;;;;;;4.60;82.21;101135.63;10256839;28;20045;-68
2021/03/27 07:57:12;;;;;;;7.35;2.38;;;;;;;4.91;82.97;101134.88;10261820;28;20056;-67
2021/03/27 08:02:08;;;;;;;6.00;2.20;;;;;;;4.97;83.07;101139.22;10257395;28;20052;-67
2021/03/27 08:07:14;;;;;;;6.25;2.45;;;;;;;5.15;82.08;101140.56;10256563;28;20500;-68
2021/03/27 08:12:47;;;;;;;6.00;3.15;;;;;;;5.43;80.75;101152.75;10257901;28;20055;-67
2021/03/27 08:18:01;;;;;;;6.63;2.90;;;;;;;5.67;80.13;101164.66;10236065;28;20533;-67
2021/03/27 08:23:09;;;;;;;7.78;3.90;;;;;;;5.63;80.53;101160.88;10255235;28;20072;-67
2021/03/27 08:28:30;;;;;;;9.50;5.03;;;;;;;5.47;82.40;101148.41;10263013;28;20065;-66
2021/03/27 08:33:58;;;;;;;9.43;5.25;;;;;;;5.73;82.38;101167.38;10264241;28;20049;-67
2021/03/27 08:39:16;;;;;;;10.63;5.68;;;;;;;5.83;81.76;101170.06;10229681;28;20060;-66
2021/03/27 08:44:37;;;;;;;10.88;6.15;;;;;;;5.84;80.74;101167.06;10270244;28;20048;-64
2021/03/27 08:49:36;;;;;;;12.13;6.22;;;;;;;6.25;79.58;101177.03;10248389;28;20141;-66
2021/03/27 08:54:44;;;;;;;10.25;6.90;;;;;;;6.29;78.96;101186.25;10270304;28;20570;-65
2021/03/27 08:59:55;;;;;;;15.98;7.07;;;;;;;6.37;79.46;101185.66;10257063;28;20087;-67
2021/03/27 09:05:03;;;;;;;17.13;6.43;;;;;;;6.56;76.03;101206.78;10262736;28;20132;-66
2021/03/27 09:10:17;;;;;;;15.10;5.55;;;;;;;6.52;74.11;101210.06;10253402;28;20111;-66
2021/03/27 09:15:50;;;;;;;11.27;4.50;;;;;;;6.44;73.04;101224.22;10248472;28;20973;-66
2021/03/27 09:21:06;;;;;;;16.20;5.57;;;;;;;6.55;72.57;101213.31;10246863;28;20076;-67
2021/03/27 09:26:21;;;;;;;11.98;4.95;;;;;;;6.60;71.30;101224.16;10252566;28;20084;-67
2021/03/27 09:31:51;;;;;;;13.32;5.07;;;;;;;6.82;71.56;101238.16;10252920;28;20648;-67
2021/03/27 09:36:59;;;;;;;9.70;4.53;;;;;;;7.05;70.29;101230.44;10251275;28;20406;-67
2021/03/27 09:42:07;;;;;;;8.55;3.95;;;;;;;7.38;69.44;101228.88;10252397;28;20049;-65
2021/03/27 09:47:12;;;;;;;12.85;3.90;;;;;;;7.33;68.49;101218.84;10262409;28;20558;-66
2021/03/27 09:52:13;;;;;;;14.50;5.30;;;;;;;7.13;66.17;101229.84;10268060;28;20067;-67
2021/03/27 09:58:00;;;;;;;12.73;3.85;;;;;;;7.42;66.15;101234.53;10261329;28;20051;-67
2021/03/27 10:03:13;;;;;;;13.80;3.72;;;;;;;7.49;65.53;101235.03;10258517;28;20049;-67
2021/03/27 10:08:26;;;;;;;9.40;3.78;;;;;;;7.44;67.81;101260.34;10250580;28;20396;-66
2021/03/27 10:13:37;;;;;;;9.52;4.35;;;;;;;6.69;71.64;101271.41;10256216;28;20067;-67
2021/03/27 10:18:45;;;;;;;10.45;4.40;;;;;;;6.11;76.26;101294.38;10273443;28;20612;-66
2021/03/27 10:24:08;;;;;;;9.93;4.07;;;;;;;5.24;81.33;101351.25;10265984;28;20149;-68
2021/03/27 10:29:10;;;;;;;6.45;3.03;;;;;;;4.57;83.39;101330.31;10254653;28;20114;-67
2021/03/27 10:34:26;;;;;;;7.35;3.78;;;;;;;5.06;82.04;101316.47;10269376;28;20490;-66
2021/03/27 10:39:26;;;;;;;6.90;2.85;;;;;;;5.68;80.80;101322.81;10262575;28;20060;-68
2021/03/27 10:44:33;;;;;;;6.50;3.75;;;;;;;5.88;80.96;101322.03;10249488;28;20052;-66
2021/03/27 10:49:39;;;;;;;8.75;3.65;;;;;;;5.79;81.10;101329.09;10242103;28;21738;-68
2021/03/27 10:54:51;;;;;;;9.43;3.80;;;;;;;6.06;79.93;101340.53;10246598;28;20099;-68
2021/03/27 10:59:47;;;;;;;8.00;3.40;;;;;;;6.72;78.65;101346.94;10246767;28;20130;-68
2021/03/27 11:05:20;;;;;;;7.30;3.08;;;;;;;7.87;76.06;101344.16;10254148;28;20455;-66
2021/03/27 11:11:00;;;;;;;6.45;2.55;;;;;;;7.80;75.20;101367.06;10243122;28;20183;-67
2021/03/27 11:16:12;;;;;;;9.68;1.80;;;;;;;7.14;72.30;101381.03;10272573;28;20045;-68
2021/03/27 11:21:45;;;;;;;2.63;1.13;;;;;;;7.05;70.00;101382.69;10257262;28;20041;-67
2021/03/27 11:27:01;;;;;;;5.57;1.40;;;;;;;7.16;70.82;101403.31;10233053;28;20048;-67
2021/03/27 11:32:09;;;;;;;4.68;1.25;;;;;;;7.11;69.07;101408.78;10261708;28;20046;-66
2021/03/27 11:37:33;;;;;;;5.35;1.73;;;;;;;7.02;68.74;101413.16;10258662;28;20572;-67
2021/03/27 11:43:02;;;;;;;7.85;2.90;;;;;;;6.98;70.04;101409.38;10256206;28;20085;-65
2021/03/27 11:48:05;;;;;;;12.90;1.85;;;;;;;6.88;68.18;101421.91;10278586;28;20041;-66
2021/03/27 11:53:19;;;;;;;6.32;1.60;;;;;;;7.02;69.54;101429.50;10272205;28;20040;-65
2021/03/27 12:04:09;;;;;;;9.05;1.95;;;;;;;6.92;67.11;101469.19;10228134;28;20526;-66
2021/03/27 12:09:20;;;;;;;12.00;2.67;;;;;;;5.53;70.81;101537.94;10217512;28;21759;-66
2021/03/27 12:14:26;;;;;;;9.90;1.20;;;;;;;4.56;75.17;101550.81;10220679;28;20546;-65
2021/03/27 12:19:50;;;;;;;7.72;2.25;;;;;;;4.57;74.79;101574.09;10218875;28;20558;-66
2021/03/27 12:25:28;;;;;;;14.60;3.03;;;;;;;4.72;74.88;101549.84;10224311;28;20095;-66
2021/03/27 12:30:40;;;;;;;6.85;1.10;;;;;;;4.97;71.80;101541.13;10228296;28;20057;-65
2021/03/27 12:35:39;;;;;;;11.45;1.15;;;;;;;5.02;68.83;101543.03;10253639;28;20060;-66
2021/03/27 12:40:43;;;;;;;10.93;1.50;;;;;;;5.33;69.94;101556.78;10259035;28;20081;-65
2021/03/27 12:45:49;;;;;;;14.48;2.92;;;;;;;5.52;69.13;101568.84;10217776;28;20064;-67
2021/03/27 12:51:10;;;;;;;11.98;2.63;;;;;;;5.87;70.06;101564.66;10267983;28;20466;-67
2021/03/27 12:56:22;;;;;;;16.48;2.85;;;;;;;6.84;67.34;101564.88;10249712;28;20044;-66
2021/03/27 13:01:43;;;;;;;16.55;2.85;;;;;;;8.71;66.81;101560.13;10258107;28;20052;-65
2021/03/27 13:06:50;;;;;;;15.88;2.83;;;;;;;8.32;63.02;101573.72;10239589;28;20060;-65
2021/03/27 13:12:22;;;;;;;17.05;3.15;;;;;;;8.30;62.54;101581.38;10211867;28;20119;-67
2021/03/27 13:17:30;;;;;;;15.52;2.50;;;;;;;7.78;64.79;101588.97;10214561;28;20057;-66
2021/03/27 13:22:56;;;;;;;16.70;3.53;;;;;;;7.35;66.00;101588.50;10208373;28;20111;-65
2021/03/27 13:27:57;;;;;;;13.98;2.60;;;;;;;6.87;64.93;101599.72;10215019;28;20172;-66
2021/03/27 13:33:03;;;;;;;15.88;3.15;;;;;;;6.84;69.02;101600.22;10204011;28;20112;-66
2021/03/27 13:38:10;;;;;;;12.85;2.92;;;;;;;5.99;71.51;101595.16;10213728;28;20080;-67
2021/03/27 13:43:16;;;;;;;18.38;3.60;;;;;;;6.35;73.09;101606.13;10206330;28;20491;-65
2021/03/27 13:48:27;;;;;;;13.93;4.18;;;;;;;6.39;69.60;101615.38;10231993;28;20084;-66
2021/03/27 13:53:42;;;;;;;13.38;2.78;;;;;;;6.69;68.04;101608.38;10234645;28;20041;-66
2021/03/27 13:59:13;;;;;;;15.70;2.75;;;;;;;6.67;65.07;101610.56;10236106;28;20057;-66
2021/03/27 14:04:30;;;;;;;10.98;2.47;;;;;;;7.77;60.69;101620.81;10214840;28;20122;-66
2021/03/27 14:09:58;;;;;;;14.75;2.22;;;;;;;7.81;59.47;101612.91;10222834;28;20807;-66
2021/03/27 14:15:03;;;;;;;14.82;2.75;;;;;;;7.36;57.78;101631.78;10226479;28;20052;-66
2021/03/27 14:20:16;;;;;;;15.00;2.95;;;;;;;7.22;58.23;101633.44;10205613;28;20088;-66
2021/03/27 14:25:27;;;;;;;14.10;3.08;;;;;;;7.01;59.48;101648.94;10258359;28;20045;-66
2021/03/27 14:31:20;;;;;;;13.57;2.55;;;;;;;6.85;60.77;101672.56;10254496;28;20056;-66
2021/03/27 14:36:19;;;;;;;22.02;3.25;;;;;;;6.89;60.38;101667.38;10220813;28;20685;-66
2021/03/27 14:41:37;;;;;;;20.88;2.85;;;;;;;7.03;59.58;101667.66;10250615;28;20032;-67
2021/03/27 14:46:33;;;;;;;16.67;3.53;;;;;;;7.36;56.82;101678.03;10238297;28;20124;-65
2021/03/27 14:51:34;;;;;;;19.05;2.50;;;;;;;7.28;58.73;101692.16;10272266;28;20048;-64
2021/03/27 14:56:39;;;;;;;15.13;2.95;;;;;;;7.23;59.73;101689.44;10266379;28;20045;-64
2021/03/27 15:01:44;;;;;;;15.23;2.85;;;;;;;7.41;61.75;101698.97;10237580;28;20100;-65
2021/03/27 15:06:45;;;;;;;12.88;2.90;;;;;;;7.22;61.91;101709.59;10233718;28;20040;-64
2021/03/27 15:11:52;;;;;;;17.27;2.78;;;;;;;7.13;62.24;101732.97;10253843;28;20048;-64
2021/03/27 15:17:13;;;;;;;22.45;3.25;;;;;;;6.72;60.23;101749.16;10244034;28;20048;-62
2021/03/27 15:22:24;;;;;;;17.05;3.88;;;;;;;6.65;60.40;101754.03;10255534;28;20050;-62
2021/03/27 15:27:25;;;;;;;17.20;2.20;;;;;;;6.62;60.13;101751.84;10224768;28;20057;-62
2021/03/27 15:32:40;;;;;;;13.90;1.88;;;;;;;7.75;56.60;101755.56;10240450;28;20115;-65
2021/03/27 15:38:02;;;;;;;19.25;2.30;;;;;;;7.90;57.25;101779.25;10261112;28;20053;-66
2021/03/27 15:43:23;;;;;;;13.02;2.00;;;;;;;7.48;52.83;101783.88;10239934;28;20389;-65
2021/03/27 15:48:41;;;;;;;10.82;1.90;;;;;;;7.73;55.18;101774.91;10258703;28;20140;-68
2021/03/27 15:54:09;;;;;;;15.30;2.42;;;;;;;8.13;50.65;101778.69;10258312;28;20068;-63
2021/03/27 15:59:38;;;;;;;12.25;1.77;;;;;;;7.72;51.37;101784.16;10239568;28;20123;-63
2021/03/27 16:04:54;;;;;;;19.70;2.42;;;;;;;7.70;53.10;101797.22;10248114;28;20119;-67
2021/03/27 16:10:22;;;;;;;11.32;2.35;;;;;;;7.40;54.76;101802.63;10249615;28;20049;-63
2021/03/27 16:15:18;;;;;;;12.07;1.92;;;;;;;8.13;54.03;101816.81;10224009;28;20658;-64
2021/03/27 16:20:35;;;;;;;13.93;2.10;;;;;;;7.68;54.59;101829.34;10252244;28;20076;-65
2021/03/27 16:25:36;;;;;;;10.65;1.60;;;;;;;7.40;56.89;101852.44;10270082;28;20051;-63
2021/03/27 16:30:54;;;;;;;15.27;3.28;;;;;;;6.95;58.56;101857.44;10273299;28;20053;-62
2021/03/27 16:36:08;;;;;;;10.65;2.00;;;;;;;6.68;59.77;101867.66;10261593;28;20166;-67
2021/03/27 16:41:23;;;;;;;12.60;2.22;;;;;;;6.56;61.07;101870.56;10267491;28;20564;-67
2021/03/27 16:46:25;;;;;;;11.98;2.08;;;;;;;6.41;60.99;101879.44;10252238;28;20045;-64
2021/03/27 16:51:59;;;;;;;10.88;2.08;;;;;;;6.54;60.94;101878.16;10269259;28;20056;-62
2021/03/27 16:57:34;;;;;;;21.15;3.08;;;;;;;6.47;61.21;101894.69;10273725;28;20088;-65
2021/03/27 17:02:50;;;;;;;11.35;2.33;;;;;;;6.55;61.24;101906.16;10242918;28;20054;-63
2021/03/27 17:07:49;;;;;;;16.63;2.33;;;;;;;6.62;61.03;101912.19;10262142;28;20076;-67
2021/03/27 17:13:01;;;;;;;15.00;2.33;;;;;;;6.62;60.23;101917.63;10257285;28;20048;-68
2021/03/27 17:18:03;;;;;;;11.63;1.63;;;;;;;6.42;60.50;101927.25;10253380;28;20469;-69
2021/03/27 17:23:17;;;;;;;12.85;1.92;;;;;;;6.30;60.85;101937.50;10252262;28;20132;-64
2021/03/27 17:28:17;;;;;;;12.27;2.10;;;;;;;6.40;60.36;101948.44;10263475;28;20053;-65
2021/03/27 17:34:11;;;;;;;14.98;2.63;;;;;;;6.34;60.62;101954.91;10262869;28;20057;-64
2021/03/27 17:39:19;;;;;;;12.93;2.38;;;;;;;6.18;63.94;101974.88;10164922;28;20050;-65
2021/03/27 17:44:48;;;;;;;14.57;2.22;;;;;;;5.73;65.60;101986.84;10231858;28;20087;-63
2021/03/27 17:50:05;;;;;;;18.13;2.60;;;;;;;5.78;66.29;101995.03;10243983;28;20053;-64
2021/03/27 17:55:10;;;;;;;15.15;2.85;;;;;;;5.84;66.33;102011.13;10250638;28;20474;-63
2021/03/27 18:00:21;;;;;;;13.13;2.92;;;;;;;5.91;66.95;102027.22;10242121;28;20596;-64
2021/03/27 18:05:20;;;;;;;12.55;2.45;;;;;;;5.83;65.70;102025.78;10250495;28;20048;-66
2021/03/27 18:10:33;;;;;;;10.27;2.10;;;;;;;5.84;66.29;102042.88;10237044;28;20049;-66
2021/03/27 18:15:48;;;;;;;14.73;3.03;;;;;;;5.90;66.03;102050.03;10241712;28;20053;-65
2021/03/27 18:21:03;;;;;;;14.55;2.28;;;;;;;5.85;65.15;102056.22;10251107;28;20876;-64
2021/03/27 18:26:11;;;;;;;11.77;2.25;;;;;;;5.70;65.05;102061.44;10252718;28;20064;-60
2021/03/27 18:31:33;;;;;;;16.95;2.25;;;;;;;5.58;65.38;102069.72;10255898;28;20049;-71
2021/03/27 18:36:49;;;;;;;15.20;2.45;;;;;;;5.61;65.48;102077.34;10241213;28;20049;-64
2021/03/27 18:42:18;;;;;;;12.20;2.45;;;;;;;5.50;65.19;102083.72;10263526;28;20051;-68
2021/03/27 18:47:42;;;;;;;14.55;2.15;;;;;;;5.47;66.44;102089.63;10248843;28;20332;-67
2021/03/27 18:52:40;;;;;;;18.02;2.25;;;;;;;5.42;66.48;102084.13;10248013;28;20049;-67
2021/03/27 18:57:43;;;;;;;12.18;2.47;;;;;;;5.41;66.54;102087.94;10261445;28;20063;-62
2021/03/27 19:02:47;;;;;;;17.58;2.83;;;;;;;5.42;67.14;102103.13;10253609;28;20046;-65
2021/03/27 19:07:44;;;;;;;11.50;2.13;;;;;;;5.35;67.34;102113.31;10259623;28;20088;-71
2021/03/27 19:12:46;;;;;;;15.30;2.80;;;;;;;5.47;66.85;102117.56;10265960;28;20055;-66
2021/03/27 19:18:07;;;;;;;12.43;3.22;;;;;;;5.47;68.01;102124.91;10263386;28;20116;-64
2021/03/27 19:23:29;;;;;;;13.25;2.40;;;;;;;5.47;68.00;102135.75;10255609;28;20041;-64
2021/03/27 19:28:30;;;;;;;17.02;2.47;;;;;;;5.65;67.60;102132.75;10277814;28;20048;-67
2021/03/27 19:33:32;;;;;;;13.88;2.35;;;;;;;5.65;67.92;102143.59;10247864;28;20556;-64
2021/03/27 19:38:40;;;;;;;12.18;2.53;;;;;;;5.53;68.21;102147.50;10256909;28;20045;-67
2021/03/27 19:43:50;;;;;;;15.27;3.17;;;;;;;5.66;68.14;102142.56;10229274;28;20061;-65
2021/03/27 19:48:52;;;;;;;12.68;2.63;;;;;;;5.65;68.88;102153.66;10240189;28;20053;-63
2021/03/27 19:54:01;;;;;;;15.00;3.45;;;;;;;5.64;70.83;102174.53;10255557;28;20077;-67
2021/03/27 19:59:20;;;;;;;16.10;3.88;;;;;;;5.67;71.34;102174.03;10250671;28;20053;-64
2021/03/27 20:04:33;;;;;;;14.70;3.65;;;;;;;5.51;72.46;102174.88;10258790;28;20041;-69
2021/03/27 20:09:43;;;;;;;13.82;3.17;;;;;;;5.53;72.55;102178.16;10271752;28;20045;-61
2021/03/27 20:15:03;;;;;;;12.65;3.22;;;;;;;5.46;72.87;102186.47;10263762;28;20111;-65
2021/03/27 20:20:11;;;;;;;10.23;3.42;;;;;;;5.38;73.34;102194.19;10263189;28;20076;-66
2021/03/27 20:25:44;;;;;;;17.60;3.65;;;;;;;5.37;73.11;102216.97;10204304;28;20103;-65
2021/03/27 20:31:09;;;;;;;13.77;3.35;;;;;;;5.42;73.44;102208.91;10229169;28;20069;-66
2021/03/27 20:36:17;;;;;;;18.80;4.00;;;;;;;5.23;73.27;102220.00;10222154;28;20518;-66
2021/03/27 20:41:31;;;;;;;14.55;3.67;;;;;;;5.25;74.02;102225.19;10220635;28;20891;-67
2021/03/27 20:46:55;;;;;;;17.23;4.45;;;;;;;5.11;74.10;102230.09;10220872;28;20165;-64
2021/03/27 20:52:11;;;;;;;17.50;3.63;;;;;;;5.10;73.41;102228.44;10214653;28;20054;-66
2021/03/27 20:57:36;;;;;;;14.50;3.80;;;;;;;5.15;73.45;102235.84;10219022;28;20049;-66
2021/03/27 21:02:45;;;;;;;14.13;3.92;;;;;;;5.11;73.36;102242.84;10223525;28;20496;-66
2021/03/27 21:07:54;;;;;;;18.60;3.42;;;;;;;5.06;73.04;102259.84;10225952;28;20045;-62
2021/03/27 21:13:26;;;;;;;13.25;3.50;;;;;;;4.91;73.42;102263.06;10228470;28;20049;-64
2021/03/27 21:18:29;;;;;;;13.10;3.70;;;;;;;4.74;74.65;102279.28;10262787;28;20045;-63
2021/03/27 21:23:53;;;;;;;14.40;3.40;;;;;;;4.72;74.02;102275.97;10266309;28;20138;-65
2021/03/27 21:29:10;;;;;;;12.77;3.13;;;;;;;4.66;75.01;102282.34;10261968;28;20048;-63
2021/03/27 21:34:30;;;;;;;13.40;3.33;;;;;;;4.48;75.10;102287.91;10266528;28;20074;-65
2021/03/27 21:39:37;;;;;;;14.18;3.00;;;;;;;4.53;74.68;102285.34;10266390;28;20048;-65
2021/03/27 21:45:08;;;;;;;15.13;3.70;;;;;;;4.37;75.54;102282.28;10250892;28;20048;-69
2021/03/27 21:50:11;;;;;;;13.63;3.55;;;;;;;4.38;75.80;102291.22;10207119;28;20578;-67
2021/03/27 21:55:22;;;;;;;13.18;2.53;;;;;;;4.20;76.21;102301.16;10247309;28;20391;-70
2021/03/27 22:00:39;;;;;;;16.10;4.18;;;;;;;4.34;75.55;102290.06;10254146;28;20053;-70
2021/03/27 22:05:54;;;;;;;12.40;3.85;;;;;;;4.16;76.29;102293.75;10208035;28;20049;-67
2021/03/27 22:10:54;;;;;;;13.32;3.53;;;;;;;4.09;76.54;102309.28;10255175;28;20074;-67
2021/03/27 22:16:01;;;;;;;15.00;3.65;;;;;;;3.98;77.59;102309.03;10254619;28;20179;-66
2021/03/27 22:21:00;;;;;;;9.35;4.10;;;;;;;4.02;77.29;102314.81;10266476;28;20060;-68
2021/03/27 22:25:57;;;;;;;13.98;3.35;;;;;;;3.96;77.01;102310.31;10276541;28;20063;-66
2021/03/27 22:31:00;;;;;;;20.08;4.22;;;;;;;3.89;77.57;102315.84;10271164;28;20396;-66
2021/03/27 22:36:23;;;;;;;18.83;4.45;;;;;;;3.89;77.77;102326.66;10271777;28;20221;-65
2021/03/27 22:41:32;;;;;;;20.02;4.00;;;;;;;3.92;77.54;102328.06;10263160;28;20041;-67
2021/03/27 22:46:46;;;;;;;15.43;4.00;;;;;;;3.87;77.92;102336.88;10229375;28;20045;-66
2021/03/27 22:51:50;;;;;;;20.60;3.80;;;;;;;3.88;77.53;102338.56;10231037;28;20049;-65
2021/03/27 22:57:03;;;;;;;14.60;3.92;;;;;;;3.88;77.69;102335.84;10272508;28;20060;-66
2021/03/27 23:02:19;;;;;;;17.53;3.87;;;;;;;3.83;78.16;102338.44;10263688;28;20455;-68
2021/03/27 23:07:35;;;;;;;13.73;3.67;;;;;;;3.71;78.73;102345.69;10261532;28;20617;-68
2021/03/27 23:12:37;;;;;;;15.73;4.07;;;;;;;3.70;79.21;102350.28;10270389;28;20491;-64
2021/03/27 23:17:33;;;;;;;21.42;4.25;;;;;;;3.79;78.51;102354.31;10272701;28;20453;-66
2021/03/27 23:22:40;;;;;;;21.80;4.28;;;;;;;3.81;78.83;102351.38;10260659;28;20044;-68
2021/03/27 23:27:55;;;;;;;16.38;4.07;;;;;;;3.81;78.51;102351.38;10278008;28;20044;-66
2021/03/27 23:33:32;;;;;;;18.40;3.97;;;;;;;3.79;78.85;102354.31;10258337;28;20057;-65
2021/03/27 23:38:53;;;;;;;15.55;5.13;;;;;;;3.76;79.15;102343.94;10260261;28;20430;-68
2021/03/27 23:44:08;;;;;;;14.85;3.78;;;;;;;3.68;79.09;102359.69;10279761;28;20070;-64
2021/03/27 23:49:17;;;;;;;18.00;4.20;;;;;;;3.70;78.92;102349.47;10267635;28;20053;-65
2021/03/27 23:54:26;;;;;;;11.88;3.33;;;;;;;3.71;78.98;102356.50;10262069;28;20102;-68
2021/03/27 23:59:59;;;;;;;21.77;4.60;;;;;;;3.77;78.56;102355.59;10258957;28;20067;-66
